sensor_id;sensor_type;location;lat;lon;timestamp;noise_LAeq;noise_LA_min;noise_LA_max;noise_LA01;noise_LA95
70454;Laerm;57915;47.174;14.680;2022-11-20T00:00:42;57.37;43.76;70.95;;
70454;Laerm;57915;47.174;14.680;2022-11-20T00:01:44;50.88;43.74;66.00;;
70454;Laerm;57915;47.174;14.680;2022-11-20T00:02:46;58.81;44.46;68.92;;
70454;Laerm;57915;47.174;14.680;2022-11-20T00:03:47;56.80;43.85;68.08;;
70454;Laerm;57915;47.174;14.680;2022-11-20T00:04:48;44.38;43.75;44.95;;
70454;Laerm;57915;47.174;14.680;2022-11-20T00:05:49;44.36;43.74;44.91;;
70454;Laerm;57915;47.174;14.680;2022-11-20T00:06:50;44.40;43.78;45.05;;
70454;Laerm;57915;47.174;14.680;2022-11-20T00:07:51;44.78;43.82;49.34;;
70454;Laerm;57915;47.174;14.680;2022-11-20T00:08:54;44.38;43.75;45.03;;
70454;Laerm;57915;47.174;14.680;2022-11-20T00:09:54;57.20;43.82;69.58;;
70454;Laerm;57915;47.174;14.680;2022-11-20T00:10:56;44.54;43.84;45.64;;
70454;Laerm;57915;47.174;14.680;2022-11-20T00:11:56;56.88;43.92;68.09;;
70454;Laerm;57915;47.174;14.680;2022-11-20T00:12:58;44.41;43.71;45.10;;
70454;Laerm;57915;47.174;14.680;2022-11-20T00:13:59;44.37;43.79;44.95;;
70454;Laerm;57915;47.174;14.680;2022-11-20T00:15:01;44.35;43.70;45.19;;
70454;Laerm;57915;47.174;14.680;2022-11-20T00:16:02;44.35;43.79;44.94;;
70454;Laerm;57915;47.174;14.680;2022-11-20T00:17:06;44.36;43.78;45.00;;
70454;Laerm;57915;47.174;14.680;2022-11-20T00:18:07;44.32;43.75;45.14;;
70454;Laerm;57915;47.174;14.680;2022-11-20T00:19:08;44.34;43.73;44.98;;
70454;Laerm;57915;47.174;14.680;2022-11-20T00:20:10;44.35;43.78;44.94;;
70454;Laerm;57915;47.174;14.680;2022-11-20T00:21:12;44.39;43.77;44.97;;
70454;Laerm;57915;47.174;14.680;2022-11-20T00:22:14;44.37;43.77;45.10;;
70454;Laerm;57915;47.174;14.680;2022-11-20T00:23:14;44.44;43.81;45.25;;
70454;Laerm;57915;47.174;14.680;2022-11-20T00:24:16;53.30;43.78;63.91;;
70454;Laerm;57915;47.174;14.680;2022-11-20T00:25:17;44.69;43.83;47.09;;
70454;Laerm;57915;47.174;14.680;2022-11-20T00:26:18;45.64;43.88;50.02;;
70454;Laerm;57915;47.174;14.680;2022-11-20T00:27:20;44.63;43.95;46.02;;
70454;Laerm;57915;47.174;14.680;2022-11-20T00:28:21;57.96;44.02;70.33;;
70454;Laerm;57915;47.174;14.680;2022-11-20T00:29:22;58.67;43.80;72.89;;
70454;Laerm;57915;47.174;14.680;2022-11-20T00:30:22;59.64;44.22;73.47;;
70454;Laerm;57915;47.174;14.680;2022-11-20T00:31:24;44.78;44.11;47.04;;
70454;Laerm;57915;47.174;14.680;2022-11-20T00:32:26;53.80;44.15;65.37;;
70454;Laerm;57915;47.174;14.680;2022-11-20T00:33:27;44.68;43.71;45.59;;
70454;Laerm;57915;47.174;14.680;2022-11-20T00:34:28;44.72;44.08;45.69;;
70454;Laerm;57915;47.174;14.680;2022-11-20T00:35:29;44.71;44.06;45.43;;
70454;Laerm;57915;47.174;14.680;2022-11-20T00:36:31;44.72;44.14;45.36;;
70454;Laerm;57915;47.174;14.680;2022-11-20T00:37:33;44.77;44.08;45.45;;
70454;Laerm;57915;47.174;14.680;2022-11-20T00:38:34;52.36;44.17;62.20;;
70454;Laerm;57915;47.174;14.680;2022-11-20T00:39:36;44.89;44.00;46.56;;
70454;Laerm;57915;47.174;14.680;2022-11-20T00:40:37;45.25;44.27;47.20;;
70454;Laerm;57915;47.174;14.680;2022-11-20T00:41:37;45.18;43.99;49.10;;
70454;Laerm;57915;47.174;14.680;2022-11-20T00:42:39;55.94;44.11;67.95;;
70454;Laerm;57915;47.174;14.680;2022-11-20T00:43:40;45.13;44.12;47.45;;
70454;Laerm;57915;47.174;14.680;2022-11-20T00:44:44;59.15;44.09;69.82;;
70454;Laerm;57915;47.174;14.680;2022-11-20T00:45:45;44.78;44.01;45.76;;
70454;Laerm;57915;47.174;14.680;2022-11-20T00:46:46;44.87;44.13;46.22;;
70454;Laerm;57915;47.174;14.680;2022-11-20T00:47:49;58.69;44.24;70.44;;
70454;Laerm;57915;47.174;14.680;2022-11-20T00:48:50;47.61;44.18;62.15;;
70454;Laerm;57915;47.174;14.680;2022-11-20T00:49:51;44.96;44.18;45.93;;
70454;Laerm;57915;47.174;14.680;2022-11-20T00:50:52;44.89;44.15;46.20;;
70454;Laerm;57915;47.174;14.680;2022-11-20T00:51:53;44.94;44.19;47.47;;
70454;Laerm;57915;47.174;14.680;2022-11-20T00:52:54;62.14;44.19;75.47;;
70454;Laerm;57915;47.174;14.680;2022-11-20T00:53:55;62.03;44.52;74.69;;
70454;Laerm;57915;47.174;14.680;2022-11-20T00:54:56;46.62;44.61;52.74;;
70454;Laerm;57915;47.174;14.680;2022-11-20T00:55:58;50.07;44.24;62.13;;
70454;Laerm;57915;47.174;14.680;2022-11-20T00:56:59;57.55;44.33;70.09;;
70454;Laerm;57915;47.174;14.680;2022-11-20T00:58:00;44.84;44.10;45.52;;
70454;Laerm;57915;47.174;14.680;2022-11-20T00:59:01;44.84;44.13;45.83;;
70454;Laerm;57915;47.174;14.680;2022-11-20T01:00:03;44.93;44.13;45.93;;
70454;Laerm;57915;47.174;14.680;2022-11-20T01:01:04;44.90;44.16;48.19;;
70454;Laerm;57915;47.174;14.680;2022-11-20T01:02:06;44.88;44.18;45.64;;
70454;Laerm;57915;47.174;14.680;2022-11-20T01:03:08;50.25;44.25;66.24;;
70454;Laerm;57915;47.174;14.680;2022-11-20T01:04:10;54.33;44.27;67.51;;
70454;Laerm;57915;47.174;14.680;2022-11-20T01:05:11;46.23;44.26;56.43;;
70454;Laerm;57915;47.174;14.680;2022-11-20T01:06:12;56.76;44.24;69.58;;
70454;Laerm;57915;47.174;14.680;2022-11-20T01:07:14;45.03;44.18;46.02;;
70454;Laerm;57915;47.174;14.680;2022-11-20T01:08:15;45.06;44.22;46.07;;
70454;Laerm;57915;47.174;14.680;2022-11-20T01:09:16;56.58;44.44;69.30;;
70454;Laerm;57915;47.174;14.680;2022-11-20T01:10:17;45.10;44.27;46.28;;
70454;Laerm;57915;47.174;14.680;2022-11-20T01:11:19;56.15;44.29;68.54;;
70454;Laerm;57915;47.174;14.680;2022-11-20T01:12:20;45.24;44.36;46.49;;
70454;Laerm;57915;47.174;14.680;2022-11-20T01:13:21;45.31;44.32;48.47;;
70454;Laerm;57915;47.174;14.680;2022-11-20T01:14:37;45.12;44.27;47.38;;
70454;Laerm;57915;47.174;14.680;2022-11-20T01:15:38;45.01;44.17;46.51;;
70454;Laerm;57915;47.174;14.680;2022-11-20T01:16:40;45.32;44.19;48.92;;
70454;Laerm;57915;47.174;14.680;2022-11-20T01:17:42;53.94;44.25;65.05;;
70454;Laerm;57915;47.174;14.680;2022-11-20T01:18:44;53.81;44.13;64.68;;
70454;Laerm;57915;47.174;14.680;2022-11-20T01:19:48;45.16;44.16;48.83;;
70454;Laerm;57915;47.174;14.680;2022-11-20T01:20:49;44.83;44.13;45.60;;
70454;Laerm;57915;47.174;14.680;2022-11-20T01:21:50;44.91;43.98;45.91;;
70454;Laerm;57915;47.174;14.680;2022-11-20T01:22:52;55.92;44.04;67.47;;
70454;Laerm;57915;47.174;14.680;2022-11-20T01:23:53;48.75;44.25;63.77;;
70454;Laerm;57915;47.174;14.680;2022-11-20T01:24:54;50.98;44.17;63.07;;
70454;Laerm;57915;47.174;14.680;2022-11-20T01:25:55;44.88;44.14;45.72;;
70454;Laerm;57915;47.174;14.680;2022-11-20T01:26:56;44.96;44.18;45.95;;
70454;Laerm;57915;47.174;14.680;2022-11-20T01:27:58;44.89;44.19;45.56;;
70454;Laerm;57915;47.174;14.680;2022-11-20T01:28:59;61.28;44.16;74.15;;
70454;Laerm;57915;47.174;14.680;2022-11-20T01:30:00;44.96;44.03;50.91;;
70454;Laerm;57915;47.174;14.680;2022-11-20T01:31:01;44.74;44.06;45.34;;
70454;Laerm;57915;47.174;14.680;2022-11-20T01:32:03;44.70;44.03;45.32;;
70454;Laerm;57915;47.174;14.680;2022-11-20T01:33:04;44.78;44.06;45.94;;
70454;Laerm;57915;47.174;14.680;2022-11-20T01:34:07;44.72;44.07;45.37;;
70454;Laerm;57915;47.174;14.680;2022-11-20T01:35:10;44.73;44.07;45.42;;
70454;Laerm;57915;47.174;14.680;2022-11-20T01:36:11;44.77;44.13;45.40;;
70454;Laerm;57915;47.174;14.680;2022-11-20T01:37:12;48.26;44.11;63.03;;
70454;Laerm;57915;47.174;14.680;2022-11-20T01:38:14;52.48;43.90;64.34;;
70454;Laerm;57915;47.174;14.680;2022-11-20T01:39:15;54.77;44.02;66.49;;
70454;Laerm;57915;47.174;14.680;2022-11-20T01:40:17;44.77;43.95;45.49;;
70454;Laerm;57915;47.174;14.680;2022-11-20T01:41:18;44.76;44.14;45.45;;
70454;Laerm;57915;47.174;14.680;2022-11-20T01:42:33;55.49;44.14;68.69;;
70454;Laerm;57915;47.174;14.680;2022-11-20T01:43:52;44.78;44.05;45.50;;
70454;Laerm;57915;47.174;14.680;2022-11-20T01:44:54;44.79;44.11;45.85;;
70454;Laerm;57915;47.174;14.680;2022-11-20T01:45:58;44.72;44.08;45.35;;
70454;Laerm;57915;47.174;14.680;2022-11-20T01:47:00;52.00;44.20;63.52;;
70454;Laerm;57915;47.174;14.680;2022-11-20T01:48:03;58.07;44.11;69.65;;
70454;Laerm;57915;47.174;14.680;2022-11-20T01:49:05;44.85;43.99;48.01;;
70454;Laerm;57915;47.174;14.680;2022-11-20T01:50:11;56.36;44.03;72.67;;
70454;Laerm;57915;47.174;14.680;2022-11-20T01:51:16;57.75;43.87;74.22;;
70454;Laerm;57915;47.174;14.680;2022-11-20T01:52:18;57.03;44.07;71.54;;
70454;Laerm;57915;47.174;14.680;2022-11-20T01:53:21;52.68;44.09;63.63;;
70454;Laerm;57915;47.174;14.680;2022-11-20T01:54:25;57.05;43.96;68.89;;
70454;Laerm;57915;47.174;14.680;2022-11-20T01:55:30;44.66;43.37;45.82;;
70454;Laerm;57915;47.174;14.680;2022-11-20T01:56:35;44.66;43.94;45.39;;
70454;Laerm;57915;47.174;14.680;2022-11-20T01:57:37;44.68;43.94;45.75;;
70454;Laerm;57915;47.174;14.680;2022-11-20T01:58:41;44.78;43.97;53.75;;
70454;Laerm;57915;47.174;14.680;2022-11-20T01:59:44;44.59;43.92;45.17;;
70454;Laerm;57915;47.174;14.680;2022-11-20T02:00:46;44.53;43.85;45.31;;
70454;Laerm;57915;47.174;14.680;2022-11-20T02:01:47;44.56;43.90;45.40;;
70454;Laerm;57915;47.174;14.680;2022-11-20T02:02:49;44.55;43.75;45.45;;
70454;Laerm;57915;47.174;14.680;2022-11-20T02:03:51;44.49;43.87;45.15;;
70454;Laerm;57915;47.174;14.680;2022-11-20T02:04:54;44.50;43.84;45.15;;
70454;Laerm;57915;47.174;14.680;2022-11-20T02:06:00;44.61;43.89;45.35;;
70454;Laerm;57915;47.174;14.680;2022-11-20T02:07:03;44.62;43.86;45.53;;
70454;Laerm;57915;47.174;14.680;2022-11-20T02:08:05;44.47;43.82;45.17;;
70454;Laerm;57915;47.174;14.680;2022-11-20T02:09:07;44.50;43.83;47.02;;
70454;Laerm;57915;47.174;14.680;2022-11-20T02:10:08;44.52;43.80;45.51;;
70454;Laerm;57915;47.174;14.680;2022-11-20T02:11:10;44.41;43.59;45.17;;
70454;Laerm;57915;47.174;14.680;2022-11-20T02:12:12;44.39;43.77;45.07;;
70454;Laerm;57915;47.174;14.680;2022-11-20T02:13:28;57.11;43.65;70.65;;
70454;Laerm;57915;47.174;14.680;2022-11-20T02:14:44;53.92;43.74;67.07;;
70454;Laerm;57915;47.174;14.680;2022-11-20T02:15:45;44.42;43.68;45.25;;
70454;Laerm;57915;47.174;14.680;2022-11-20T02:16:46;56.33;43.72;67.60;;
70454;Laerm;57915;47.174;14.680;2022-11-20T02:17:48;44.72;43.77;48.93;;
70454;Laerm;57915;47.174;14.680;2022-11-20T02:18:49;44.34;43.73;44.98;;
70454;Laerm;57915;47.174;14.680;2022-11-20T02:19:51;44.35;43.72;44.92;;
70454;Laerm;57915;47.174;14.680;2022-11-20T02:20:53;44.35;43.62;45.48;;
70454;Laerm;57915;47.174;14.680;2022-11-20T02:21:58;44.36;43.63;50.51;;
70454;Laerm;57915;47.174;14.680;2022-11-20T02:23:02;55.87;43.52;73.45;;
70454;Laerm;57915;47.174;14.680;2022-11-20T02:24:08;56.91;43.72;72.23;;
70454;Laerm;57915;47.174;14.680;2022-11-20T02:25:09;58.52;43.77;69.53;;
70454;Laerm;57915;47.174;14.680;2022-11-20T02:26:11;46.01;43.14;69.50;;
70454;Laerm;57915;47.174;14.680;2022-11-20T02:27:14;46.43;42.85;66.33;;
70454;Laerm;57915;47.174;14.680;2022-11-20T02:28:16;44.45;43.82;45.16;;
70454;Laerm;57915;47.174;14.680;2022-11-20T02:29:18;44.49;43.89;45.07;;
70454;Laerm;57915;47.174;14.680;2022-11-20T02:30:20;44.52;43.93;45.07;;
70454;Laerm;57915;47.174;14.680;2022-11-20T02:31:21;44.56;43.92;45.16;;
70454;Laerm;57915;47.174;14.680;2022-11-20T02:32:23;44.58;43.85;45.21;;
70454;Laerm;57915;47.174;14.680;2022-11-20T02:33:24;44.56;43.94;45.12;;
70454;Laerm;57915;47.174;14.680;2022-11-20T02:34:26;55.32;43.95;69.40;;
70454;Laerm;57915;47.174;14.680;2022-11-20T02:35:40;45.32;43.89;53.34;;
70454;Laerm;57915;47.174;14.680;2022-11-20T02:36:42;44.60;43.89;45.27;;
70454;Laerm;57915;47.174;14.680;2022-11-20T02:37:42;44.62;43.98;45.23;;
70454;Laerm;57915;47.174;14.680;2022-11-20T02:38:44;44.71;43.78;45.79;;
70454;Laerm;57915;47.174;14.680;2022-11-20T02:39:47;44.75;43.86;45.66;;
70454;Laerm;57915;47.174;14.680;2022-11-20T02:40:49;47.00;44.00;56.97;;
70454;Laerm;57915;47.174;14.680;2022-11-20T02:41:50;57.95;44.53;68.92;;
70454;Laerm;57915;47.174;14.680;2022-11-20T02:42:53;45.08;44.03;48.09;;
70454;Laerm;57915;47.174;14.680;2022-11-20T02:43:53;44.67;43.99;45.25;;
70454;Laerm;57915;47.174;14.680;2022-11-20T02:44:55;57.11;44.01;69.51;;
70454;Laerm;57915;47.174;14.680;2022-11-20T02:45:56;44.78;44.09;45.57;;
70454;Laerm;57915;47.174;14.680;2022-11-20T02:46:56;44.72;44.05;45.38;;
70454;Laerm;57915;47.174;14.680;2022-11-20T02:47:58;44.66;44.03;45.26;;
70454;Laerm;57915;47.174;14.680;2022-11-20T02:48:58;44.64;44.00;45.38;;
70454;Laerm;57915;47.174;14.680;2022-11-20T02:50:00;44.60;43.98;45.19;;
70454;Laerm;57915;47.174;14.680;2022-11-20T02:51:00;44.63;43.90;45.42;;
70454;Laerm;57915;47.174;14.680;2022-11-20T02:52:02;44.63;44.01;45.20;;
70454;Laerm;57915;47.174;14.680;2022-11-20T02:53:02;59.23;44.07;69.42;;
70454;Laerm;57915;47.174;14.680;2022-11-20T02:54:04;45.76;44.00;49.75;;
70454;Laerm;57915;47.174;14.680;2022-11-20T02:55:06;44.71;43.93;46.08;;
70454;Laerm;57915;47.174;14.680;2022-11-20T02:56:08;44.66;44.00;45.39;;
70454;Laerm;57915;47.174;14.680;2022-11-20T02:57:08;55.52;44.06;67.72;;
70454;Laerm;57915;47.174;14.680;2022-11-20T02:58:10;47.81;44.05;61.06;;
70454;Laerm;57915;47.174;14.680;2022-11-20T02:59:10;44.71;44.10;45.39;;
70454;Laerm;57915;47.174;14.680;2022-11-20T03:00:12;44.72;44.06;45.37;;
70454;Laerm;57915;47.174;14.680;2022-11-20T03:01:13;44.68;43.99;45.34;;
70454;Laerm;57915;47.174;14.680;2022-11-20T03:02:14;44.90;44.20;46.16;;
70454;Laerm;57915;47.174;14.680;2022-11-20T03:03:15;46.85;44.26;53.71;;
70454;Laerm;57915;47.174;14.680;2022-11-20T03:04:16;51.93;46.12;65.03;;
70454;Laerm;57915;47.174;14.680;2022-11-20T03:05:17;55.46;44.06;68.70;;
70454;Laerm;57915;47.174;14.680;2022-11-20T03:06:18;44.74;44.03;45.43;;
70454;Laerm;57915;47.174;14.680;2022-11-20T03:07:19;44.89;44.21;46.56;;
70454;Laerm;57915;47.174;14.680;2022-11-20T03:08:20;44.77;44.15;45.51;;
70454;Laerm;57915;47.174;14.680;2022-11-20T03:09:21;44.84;44.20;45.53;;
70454;Laerm;57915;47.174;14.680;2022-11-20T03:10:24;44.81;44.10;45.42;;
70454;Laerm;57915;47.174;14.680;2022-11-20T03:11:24;44.86;44.14;45.61;;
70454;Laerm;57915;47.174;14.680;2022-11-20T03:12:26;44.85;44.20;45.79;;
70454;Laerm;57915;47.174;14.680;2022-11-20T03:13:26;44.85;44.16;47.49;;
70454;Laerm;57915;47.174;14.680;2022-11-20T03:14:28;44.81;44.07;45.85;;
70454;Laerm;57915;47.174;14.680;2022-11-20T03:15:28;44.85;44.16;45.87;;
70454;Laerm;57915;47.174;14.680;2022-11-20T03:16:30;44.80;44.07;46.06;;
70454;Laerm;57915;47.174;14.680;2022-11-20T03:17:31;44.77;44.11;45.51;;
70454;Laerm;57915;47.174;14.680;2022-11-20T03:18:32;56.35;44.08;69.06;;
70454;Laerm;57915;47.174;14.680;2022-11-20T03:19:33;48.09;44.10;61.75;;
70454;Laerm;57915;47.174;14.680;2022-11-20T03:20:34;44.80;44.03;45.56;;
70454;Laerm;57915;47.174;14.680;2022-11-20T03:21:35;44.78;44.04;45.44;;
70454;Laerm;57915;47.174;14.680;2022-11-20T03:22:37;44.90;44.05;46.51;;
70454;Laerm;57915;47.174;14.680;2022-11-20T03:23:37;55.76;44.19;69.29;;
70454;Laerm;57915;47.174;14.680;2022-11-20T03:24:39;45.40;44.08;52.03;;
70454;Laerm;57915;47.174;14.680;2022-11-20T03:25:41;54.25;44.09;66.51;;
70454;Laerm;57915;47.174;14.680;2022-11-20T03:26:43;52.63;44.21;62.23;;
70454;Laerm;57915;47.174;14.680;2022-11-20T03:27:43;57.15;43.97;69.08;;
70454;Laerm;57915;47.174;14.680;2022-11-20T03:28:46;44.83;43.92;46.69;;
70454;Laerm;57915;47.174;14.680;2022-11-20T03:29:47;44.69;43.92;45.88;;
70454;Laerm;57915;47.174;14.680;2022-11-20T03:30:48;54.92;43.57;67.01;;
70454;Laerm;57915;47.174;14.680;2022-11-20T03:31:49;50.83;43.33;68.64;;
70454;Laerm;57915;47.174;14.680;2022-11-20T03:32:52;44.55;43.87;45.30;;
70454;Laerm;57915;47.174;14.680;2022-11-20T03:33:53;60.78;43.87;71.28;;
70454;Laerm;57915;47.174;14.680;2022-11-20T03:34:54;44.66;43.89;45.58;;
70454;Laerm;57915;47.174;14.680;2022-11-20T03:35:55;44.68;43.87;45.84;;
70454;Laerm;57915;47.174;14.680;2022-11-20T03:37:01;44.60;43.81;45.32;;
70454;Laerm;57915;47.174;14.680;2022-11-20T03:38:02;44.66;43.91;45.55;;
70454;Laerm;57915;47.174;14.680;2022-11-20T03:39:03;44.77;43.75;45.75;;
70454;Laerm;57915;47.174;14.680;2022-11-20T03:40:04;44.69;43.85;46.40;;
70454;Laerm;57915;47.174;14.680;2022-11-20T03:41:08;54.75;43.91;66.88;;
70454;Laerm;57915;47.174;14.680;2022-11-20T03:42:09;44.63;43.88;45.37;;
70454;Laerm;57915;47.174;14.680;2022-11-20T03:43:32;44.82;43.07;47.67;;
70454;Laerm;57915;47.174;14.680;2022-11-20T03:44:32;48.55;43.80;57.30;;
70454;Laerm;57915;47.174;14.680;2022-11-20T03:45:34;56.23;43.82;68.34;;
70454;Laerm;57915;47.174;14.680;2022-11-20T03:46:34;44.68;43.90;46.38;;
70454;Laerm;57915;47.174;14.680;2022-11-20T03:47:36;44.67;43.89;46.53;;
70454;Laerm;57915;47.174;14.680;2022-11-20T03:48:36;44.63;43.87;45.67;;
70454;Laerm;57915;47.174;14.680;2022-11-20T03:49:38;44.59;43.76;46.34;;
70454;Laerm;57915;47.174;14.680;2022-11-20T03:50:38;44.57;43.87;45.38;;
70454;Laerm;57915;47.174;14.680;2022-11-20T03:51:40;44.55;43.81;45.23;;
70454;Laerm;57915;47.174;14.680;2022-11-20T03:52:40;44.58;43.81;45.70;;
70454;Laerm;57915;47.174;14.680;2022-11-20T03:53:43;44.74;43.85;47.29;;
70454;Laerm;57915;47.174;14.680;2022-11-20T03:54:44;44.83;43.91;47.74;;
70454;Laerm;57915;47.174;14.680;2022-11-20T03:55:45;44.73;43.88;46.27;;
70454;Laerm;57915;47.174;14.680;2022-11-20T03:56:51;56.00;43.90;70.86;;
70454;Laerm;57915;47.174;14.680;2022-11-20T03:57:53;54.08;43.88;70.98;;
70454;Laerm;57915;47.174;14.680;2022-11-20T03:58:53;44.87;43.79;49.87;;
70454;Laerm;57915;47.174;14.680;2022-11-20T03:59:55;44.61;43.81;45.85;;
70454;Laerm;57915;47.174;14.680;2022-11-20T04:00:55;44.58;43.81;45.50;;
70454;Laerm;57915;47.174;14.680;2022-11-20T04:01:57;44.88;43.90;47.98;;
70454;Laerm;57915;47.174;14.680;2022-11-20T04:02:57;44.74;43.80;47.14;;
70454;Laerm;57915;47.174;14.680;2022-11-20T04:03:59;44.90;43.61;46.97;;
70454;Laerm;57915;47.174;14.680;2022-11-20T04:05:00;44.94;43.57;47.87;;
70454;Laerm;57915;47.174;14.680;2022-11-20T04:06:02;44.98;43.81;47.74;;
70454;Laerm;57915;47.174;14.680;2022-11-20T04:07:03;46.15;43.31;52.21;;
70454;Laerm;57915;47.174;14.680;2022-11-20T04:08:04;44.66;43.24;46.24;;
70454;Laerm;57915;47.174;14.680;2022-11-20T04:09:06;44.58;43.07;46.00;;
70454;Laerm;57915;47.174;14.680;2022-11-20T04:10:07;44.52;43.64;45.51;;
70454;Laerm;57915;47.174;14.680;2022-11-20T04:11:11;58.88;44.05;71.51;;
70454;Laerm;57915;47.174;14.680;2022-11-20T04:12:14;56.12;43.95;69.27;;
70454;Laerm;57915;47.174;14.680;2022-11-20T04:13:15;44.69;43.67;46.37;;
70454;Laerm;57915;47.174;14.680;2022-11-20T04:14:16;44.57;43.64;45.43;;
70454;Laerm;57915;47.174;14.680;2022-11-20T04:15:17;44.68;43.79;45.84;;
70454;Laerm;57915;47.174;14.680;2022-11-20T04:16:18;46.91;43.84;55.38;;
70454;Laerm;57915;47.174;14.680;2022-11-20T04:17:20;53.98;43.71;65.12;;
70454;Laerm;57915;47.174;14.680;2022-11-20T04:18:20;44.70;43.74;47.11;;
70454;Laerm;57915;47.174;14.680;2022-11-20T04:19:22;44.64;43.69;46.62;;
70454;Laerm;57915;47.174;14.680;2022-11-20T04:20:22;44.86;43.81;46.58;;
70454;Laerm;57915;47.174;14.680;2022-11-20T04:21:24;46.79;43.82;54.73;;
70454;Laerm;57915;47.174;14.680;2022-11-20T04:22:25;45.90;43.31;52.60;;
70454;Laerm;57915;47.174;14.680;2022-11-20T04:23:26;60.35;43.24;72.04;;
70454;Laerm;57915;47.174;14.680;2022-11-20T04:24:27;55.11;43.84;67.58;;
70454;Laerm;57915;47.174;14.680;2022-11-20T04:25:28;44.76;43.51;46.45;;
70454;Laerm;57915;47.174;14.680;2022-11-20T04:26:29;44.74;43.62;45.80;;
70454;Laerm;57915;47.174;14.680;2022-11-20T04:27:32;44.71;43.82;45.54;;
70454;Laerm;57915;47.174;14.680;2022-11-20T04:28:33;44.69;43.31;47.79;;
70454;Laerm;57915;47.174;14.680;2022-11-20T04:29:34;46.93;43.65;58.96;;
70454;Laerm;57915;47.174;14.680;2022-11-20T04:30:35;45.40;43.15;50.80;;
70454;Laerm;57915;47.174;14.680;2022-11-20T04:31:36;54.73;43.99;66.85;;
70454;Laerm;57915;47.174;14.680;2022-11-20T04:32:37;56.12;44.10;69.04;;
70454;Laerm;57915;47.174;14.680;2022-11-20T04:33:38;56.50;44.19;68.67;;
70454;Laerm;57915;47.174;14.680;2022-11-20T04:34:39;52.29;44.00;65.95;;
70454;Laerm;57915;47.174;14.680;2022-11-20T04:35:42;56.38;44.04;70.85;;
70454;Laerm;57915;47.174;14.680;2022-11-20T04:36:43;44.91;44.17;47.20;;
70454;Laerm;57915;47.174;14.680;2022-11-20T04:37:45;45.12;43.94;48.44;;
70454;Laerm;57915;47.174;14.680;2022-11-20T04:38:45;54.79;43.85;67.77;;
70454;Laerm;57915;47.174;14.680;2022-11-20T04:39:48;45.06;44.19;46.44;;
70454;Laerm;57915;47.174;14.680;2022-11-20T04:40:49;44.97;44.16;45.76;;
70454;Laerm;57915;47.174;14.680;2022-11-20T04:41:50;44.91;44.14;45.69;;
70454;Laerm;57915;47.174;14.680;2022-11-20T04:43:13;52.78;44.09;65.98;;
70454;Laerm;57915;47.174;14.680;2022-11-20T04:44:14;44.89;44.09;46.02;;
70454;Laerm;57915;47.174;14.680;2022-11-20T04:45:15;56.54;44.10;69.16;;
70454;Laerm;57915;47.174;14.680;2022-11-20T04:46:16;44.90;43.95;46.52;;
70454;Laerm;57915;47.174;14.680;2022-11-20T04:47:18;44.87;44.13;46.90;;
70454;Laerm;57915;47.174;14.680;2022-11-20T04:48:18;44.91;44.14;46.21;;
70454;Laerm;57915;47.174;14.680;2022-11-20T04:49:19;44.92;43.99;46.09;;
70454;Laerm;57915;47.174;14.680;2022-11-20T04:50:20;44.85;43.96;45.58;;
70454;Laerm;57915;47.174;14.680;2022-11-20T04:51:21;44.85;44.02;45.64;;
70454;Laerm;57915;47.174;14.680;2022-11-20T04:52:22;44.84;44.04;46.10;;
70454;Laerm;57915;47.174;14.680;2022-11-20T04:53:24;44.83;44.15;45.85;;
70454;Laerm;57915;47.174;14.680;2022-11-20T04:54:24;44.96;44.18;45.97;;
70454;Laerm;57915;47.174;14.680;2022-11-20T04:55:26;61.62;44.37;75.60;;
70454;Laerm;57915;47.174;14.680;2022-11-20T04:56:26;44.96;44.22;47.99;;
70454;Laerm;57915;47.174;14.680;2022-11-20T04:57:27;45.04;44.23;55.05;;
70454;Laerm;57915;47.174;14.680;2022-11-20T04:58:29;45.22;44.36;48.51;;
70454;Laerm;57915;47.174;14.680;2022-11-20T04:59:31;44.99;44.31;46.88;;
70454;Laerm;57915;47.174;14.680;2022-11-20T05:00:31;45.12;44.38;46.60;;
70454;Laerm;57915;47.174;14.680;2022-11-20T05:01:33;45.34;44.45;48.13;;
70454;Laerm;57915;47.174;14.680;2022-11-20T05:02:33;45.04;44.40;45.80;;
70454;Laerm;57915;47.174;14.680;2022-11-20T05:03:35;45.04;44.40;45.76;;
70454;Laerm;57915;47.174;14.680;2022-11-20T05:04:36;59.09;44.46;72.17;;
70454;Laerm;57915;47.174;14.680;2022-11-20T05:05:37;45.25;44.43;47.01;;
70454;Laerm;57915;47.174;14.680;2022-11-20T05:06:38;55.91;44.54;65.18;;
70454;Laerm;57915;47.174;14.680;2022-11-20T05:07:39;54.25;44.53;65.31;;
70454;Laerm;57915;47.174;14.680;2022-11-20T05:08:39;55.35;44.66;66.11;;
70454;Laerm;57915;47.174;14.680;2022-11-20T05:09:41;45.28;44.47;46.80;;
70454;Laerm;57915;47.174;14.680;2022-11-20T05:10:41;45.20;44.56;45.96;;
70454;Laerm;57915;47.174;14.680;2022-11-20T05:11:43;45.18;44.56;45.89;;
70454;Laerm;57915;47.174;14.680;2022-11-20T05:12:44;45.31;44.57;46.90;;
70454;Laerm;57915;47.174;14.680;2022-11-20T05:13:46;45.23;44.61;45.94;;
70454;Laerm;57915;47.174;14.680;2022-11-20T05:14:48;45.21;44.63;45.92;;
70454;Laerm;57915;47.174;14.680;2022-11-20T05:15:48;45.32;44.63;46.36;;
70454;Laerm;57915;47.174;14.680;2022-11-20T05:16:50;45.76;44.36;49.57;;
70454;Laerm;57915;47.174;14.680;2022-11-20T05:17:51;45.50;44.30;46.60;;
70454;Laerm;57915;47.174;14.680;2022-11-20T05:18:54;45.57;44.41;48.85;;
70454;Laerm;57915;47.174;14.680;2022-11-20T05:19:54;45.31;44.65;46.25;;
70454;Laerm;57915;47.174;14.680;2022-11-20T05:20:56;45.41;44.44;54.16;;
70454;Laerm;57915;47.174;14.680;2022-11-20T05:21:57;45.44;44.65;48.37;;
70454;Laerm;57915;47.174;14.680;2022-11-20T05:22:58;45.33;44.55;48.04;;
70454;Laerm;57915;47.174;14.680;2022-11-20T05:23:59;45.63;44.67;51.79;;
70454;Laerm;57915;47.174;14.680;2022-11-20T05:25:00;45.50;44.67;49.05;;
70454;Laerm;57915;47.174;14.680;2022-11-20T05:26:01;50.88;44.66;65.43;;
70454;Laerm;57915;47.174;14.680;2022-11-20T05:27:03;53.16;44.71;65.95;;
70454;Laerm;57915;47.174;14.680;2022-11-20T05:28:03;45.69;44.73;53.60;;
70454;Laerm;57915;47.174;14.680;2022-11-20T05:29:06;46.52;44.77;62.55;;
70454;Laerm;57915;47.174;14.680;2022-11-20T05:30:07;45.50;44.82;47.44;;
70454;Laerm;57915;47.174;14.680;2022-11-20T05:31:09;47.35;44.79;69.26;;
70454;Laerm;57915;47.174;14.680;2022-11-20T05:32:10;48.24;46.38;55.82;;
70454;Laerm;57915;47.174;14.680;2022-11-20T05:33:12;47.62;45.00;52.60;;
70454;Laerm;57915;47.174;14.680;2022-11-20T05:34:12;45.59;44.89;47.72;;
70454;Laerm;57915;47.174;14.680;2022-11-20T05:35:14;45.75;44.83;50.22;;
70454;Laerm;57915;47.174;14.680;2022-11-20T05:36:15;46.02;44.85;55.89;;
70454;Laerm;57915;47.174;14.680;2022-11-20T05:37:17;46.08;44.60;54.85;;
70454;Laerm;57915;47.174;14.680;2022-11-20T05:38:17;45.66;44.67;49.44;;
70454;Laerm;57915;47.174;14.680;2022-11-20T05:39:19;45.62;44.80;50.27;;
70454;Laerm;57915;47.174;14.680;2022-11-20T05:40:19;45.68;44.84;54.28;;
70454;Laerm;57915;47.174;14.680;2022-11-20T05:41:21;49.00;44.69;75.13;;